Terminal Aerodrome Forecast
Issued by NWS

Home | Current Version | Previous Version | Text Only | Print | Product List | Glossary On
Versions: 1 2 3 4 5 6 7 8 9 10 11 12
000
FTUS45 KRIW 161700
TAFLND
TAF
KLND 161720Z 1618/1718 VRB06KT P6SM FEW120
     FM161900 VRB05KT P6SM SCT120
     FM170300 24007KT P6SM FEW120=

USA.gov is the U.S. government's official web portal to all federal, state and local government web resources and services.